Time;durP1;ratioP1;P1;durP2;ratioP2;P2;SDS_P1;SDS_P2;PMS_P1;PMS_P2;Temp;Humidity;BMP_temperature;BMP_pressure;BME280_temperature;BME280_humidity;BME280_pressure;Samples;Min_cycle;Max_cycle;Signal;HPM_P1;HPM_P2
2023/03/03 00:00:02;;;;;;;;;;;;;;;5.12;59.28;100155.16;1088327;54;19927;-82
2023/03/03 00:01:16;;;;;;;;;;;;;;;5.13;59.11;100142.75;1089539;46;19950;-82
2023/03/03 00:02:17;;;;;;;;;;;;;;;4.96;59.97;100149.22;1088297;54;19951;-82
2023/03/03 00:03:25;;;;;;;;;;;;;;;4.89;60.21;100147.97;1088180;54;19947;-82
2023/03/03 00:04:29;;;;;;;;;;;;;;;4.78;60.81;100154.84;1088054;54;19970;-81
2023/03/03 00:05:45;;;;;;;;;;;;;;;4.84;60.66;100146.47;1088194;54;19943;-82
2023/03/03 00:06:47;;;;;;;;;;;;;;;4.90;60.37;100150.50;1090912;46;20542;-82
2023/03/03 00:07:51;;;;;;;;;;;;;;;4.91;60.11;100154.00;1087930;54;19954;-82
2023/03/03 00:08:52;;;;;;;;;;;;;;;4.83;60.70;100150.06;1087831;54;19927;-82
2023/03/03 00:09:58;;;;;;;;;;;;;;;4.83;60.65;100150.06;1087873;54;19950;-82
2023/03/03 00:11:01;;;;;;;;;;;;;;;4.82;60.60;100151.00;1087810;54;19950;-82
2023/03/03 00:12:20;;;;;;;;;;;;;;;4.83;60.50;100158.00;1087849;54;19942;-82
2023/03/03 00:13:22;;;;;;;;;;;;;;;4.80;60.43;100152.06;1087864;54;19950;-82
2023/03/03 00:14:30;;;;;;;;;;;;;;;4.77;60.47;100152.31;1087767;54;19949;-82
2023/03/03 00:15:32;;;;;;;;;;;;;;;4.70;60.80;100159.81;1087877;54;19951;-82
2023/03/03 00:16:39;;;;;;;;;;;;;;;4.64;60.94;100155.78;1087802;54;20030;-82
2023/03/03 00:17:40;;;;;;;;;;;;;;;4.65;60.94;100156.63;1087782;54;19957;-81
2023/03/03 00:20:31;;;;;;;;;;;;;;;4.63;61.06;100153.25;1089773;47;19946;-82
2023/03/03 00:21:42;;;;;;;;;;;;;;;4.61;60.75;100155.13;1089032;47;19946;-81
2023/03/03 00:22:43;;;;;;;;;;;;;;;4.60;61.19;100156.91;1089118;47;19949;-83
2023/03/03 00:23:54;;;;;;;;;;;;;;;4.60;60.76;100154.28;1088212;54;19934;-82
2023/03/03 00:25:00;;;;;;;;;;;;;;;4.62;60.83;100157.69;1088140;54;20374;-82
2023/03/03 00:26:02;;;;;;;;;;;;;;;4.65;60.72;100152.19;1091819;47;19942;-82
2023/03/03 00:27:18;;;;;;;;;;;;;;;4.69;60.42;100155.47;1087732;54;19942;-81
2023/03/03 00:28:22;;;;;;;;;;;;;;;4.68;60.51;100151.94;1088555;39;20359;-81
2023/03/03 00:29:37;;;;;;;;;;;;;;;4.66;60.94;100151.22;1087610;54;19938;-81
2023/03/03 00:30:38;;;;;;;;;;;;;;;4.70;60.48;100159.81;1087716;54;19950;-82
2023/03/03 00:31:43;;;;;;;;;;;;;;;4.66;60.85;100158.31;1087776;54;19950;-82
2023/03/03 00:32:45;;;;;;;;;;;;;;;4.59;61.23;100154.38;1087747;54;19957;-81
2023/03/03 00:33:54;;;;;;;;;;;;;;;4.58;61.24;100161.47;1087637;54;19926;-82
2023/03/03 00:35:00;;;;;;;;;;;;;;;4.59;60.90;100164.97;1087662;54;19934;-81
2023/03/03 00:36:27;;;;;;;;;;;;;;;4.57;61.33;100154.50;1087671;54;19974;-81
2023/03/03 00:37:30;;;;;;;;;;;;;;;4.50;61.71;100164.66;1087746;47;19942;-81
2023/03/03 00:38:35;;;;;;;;;;;;;;;4.49;61.54;100167.38;1087703;54;19968;-82
2023/03/03 00:39:37;;;;;;;;;;;;;;;4.49;61.42;100164.72;1086923;54;20580;-81
2023/03/03 00:40:42;;;;;;;;;;;;;;;4.42;62.01;100174.03;1087650;54;19954;-82
2023/03/03 00:41:43;;;;;;;;;;;;;;;4.45;61.76;100168.56;1088545;39;20502;-81
2023/03/03 00:42:48;;;;;;;;;;;;;;;4.42;61.87;100171.41;1087736;54;19943;-81
2023/03/03 00:43:50;;;;;;;;;;;;;;;4.45;61.80;100161.44;1087630;54;19947;-81
2023/03/03 00:44:58;;;;;;;;;;;;;;;4.45;61.87;100165.91;1087534;54;20007;-81
2023/03/03 00:45:59;;;;;;;;;;;;;;;4.48;61.43;100166.53;1087522;54;20003;-81
2023/03/03 00:47:15;;;;;;;;;;;;;;;4.46;61.78;100163.16;1087555;54;19951;-82
2023/03/03 00:48:26;;;;;;;;;;;;;;;4.43;61.49;100168.66;1087628;54;19943;-82
2023/03/03 00:49:27;;;;;;;;;;;;;;;4.37;62.07;100164.63;1087623;54;19962;-81
2023/03/03 00:50:33;;;;;;;;;;;;;;;4.38;61.70;100160.16;1087583;54;19961;-82
2023/03/03 00:51:37;;;;;;;;;;;;;;;4.36;62.11;100164.72;1087603;54;19954;-81
2023/03/03 00:52:46;;;;;;;;;;;;;;;4.28;62.17;100170.53;1087610;54;19950;-81
2023/03/03 00:53:50;;;;;;;;;;;;;;;4.28;62.18;100164.38;1087709;54;19942;-82
2023/03/03 00:54:52;;;;;;;;;;;;;;;4.26;62.08;100168.91;1088051;54;19926;-82
2023/03/03 00:55:55;;;;;;;;;;;;;;;4.27;62.05;100165.31;1087870;54;19953;-82
2023/03/03 00:56:58;;;;;;;;;;;;;;;4.22;62.21;100166.50;1087976;54;19943;-83
2023/03/03 00:58:01;;;;;;;;;;;;;;;4.17;62.27;100179.16;1087927;54;19951;-83
2023/03/03 00:59:06;;;;;;;;;;;;;;;4.13;62.40;100176.81;1087980;54;19949;-82
2023/03/03 01:00:08;;;;;;;;;;;;;;;4.03;62.79;100173.94;1087876;54;19973;-81
2023/03/03 01:01:12;;;;;;;;;;;;;;;4.01;62.88;100178.47;1087543;54;19943;-81
2023/03/03 01:02:13;;;;;;;;;;;;;;;4.05;62.59;100164.09;1086604;54;19955;-81
2023/03/03 01:03:18;;;;;;;;;;;;;;;4.05;62.47;100172.03;1086843;54;19954;-81
2023/03/03 01:04:19;;;;;;;;;;;;;;;4.03;62.38;100174.75;1086960;54;19946;-81
2023/03/03 01:05:21;;;;;;;;;;;;;;;4.03;62.73;100171.28;1086584;54;20101;-81
2023/03/03 01:06:25;;;;;;;;;;;;;;;4.03;62.87;100169.47;1086738;54;19970;-82
2023/03/03 01:07:28;;;;;;;;;;;;;;;4.04;62.54;100173.81;1088051;39;20428;-81
2023/03/03 01:08:32;;;;;;;;;;;;;;;4.08;62.32;100163.88;1087870;54;19943;-81
2023/03/03 01:09:34;;;;;;;;;;;;;;;4.11;62.18;100170.78;1087791;54;19943;-81
2023/03/03 01:10:39;;;;;;;;;;;;;;;4.09;62.44;100178.81;1087806;54;19949;-82
2023/03/03 01:11:40;;;;;;;;;;;;;;;4.09;62.46;100165.59;1087643;54;19930;-81
2023/03/03 01:12:44;;;;;;;;;;;;;;;4.08;62.35;100169.19;1087862;54;19997;-82
2023/03/03 01:13:46;;;;;;;;;;;;;;;4.04;62.91;100168.53;1088001;54;19942;-82
2023/03/03 01:14:51;;;;;;;;;;;;;;;3.99;62.99;100170.63;1087885;54;19951;-82
2023/03/03 01:15:53;;;;;;;;;;;;;;;4.00;62.86;100160.88;1087778;54;19942;-82
2023/03/03 01:16:56;;;;;;;;;;;;;;;4.03;62.59;100161.53;1087659;54;19950;-82
2023/03/03 01:17:58;;;;;;;;;;;;;;;4.03;62.76;100158.88;1087772;54;19942;-82
2023/03/03 01:19:01;;;;;;;;;;;;;;;4.01;62.98;100152.88;1087791;54;19942;-81
2023/03/03 01:20:03;;;;;;;;;;;;;;;4.01;63.14;100157.31;1087962;54;19958;-81
2023/03/03 01:21:08;;;;;;;;;;;;;;;4.01;62.79;100159.94;1087694;54;19958;-80
2023/03/03 01:22:09;;;;;;;;;;;;;;;4.00;63.11;100167.03;1087899;54;19943;-80
2023/03/03 01:23:15;;;;;;;;;;;;;;;4.01;63.13;100157.31;1087704;54;19949;-82
2023/03/03 01:24:17;;;;;;;;;;;;;;;4.01;63.10;100163.47;1087816;54;19966;-82
2023/03/03 01:25:20;;;;;;;;;;;;;;;3.98;63.47;100154.84;1087788;54;19957;-81
2023/03/03 01:26:21;;;;;;;;;;;;;;;3.96;63.51;100157.59;1087524;54;19966;-82
2023/03/03 01:27:27;;;;;;;;;;;;;;;3.93;63.76;100151.66;1087800;54;20006;-81
2023/03/03 01:28:28;;;;;;;;;;;;;;;3.89;63.73;100151.84;1087677;54;19949;-82
2023/03/03 01:29:32;;;;;;;;;;;;;;;3.89;63.69;100159.78;1087935;54;19989;-81
2023/03/03 01:30:33;;;;;;;;;;;;;;;3.92;63.27;100160.53;1087661;54;20784;-81
2023/03/03 01:31:37;;;;;;;;;;;;;;;3.93;63.12;100151.66;1087841;54;19950;-82
2023/03/03 01:32:38;;;;;;;;;;;;;;;3.93;62.99;100157.78;1088110;54;19949;-81
2023/03/03 01:33:42;;;;;;;;;;;;;;;3.96;62.94;100154.13;1087931;54;20969;-82
2023/03/03 01:34:43;;;;;;;;;;;;;;;3.96;62.80;100154.97;1088095;54;19927;-81
2023/03/03 01:35:47;;;;;;;;;;;;;;;3.98;63.10;100154.84;1088009;54;19946;-80
2023/03/03 01:36:48;;;;;;;;;;;;;;;3.92;63.33;100148.16;1089481;39;20462;-82
2023/03/03 01:37:53;;;;;;;;;;;;;;;3.93;63.43;100156.94;1088050;54;19978;-82
2023/03/03 01:38:56;;;;;;;;;;;;;;;3.93;63.33;100154.31;1087870;54;19950;-81
2023/03/03 01:40:00;;;;;;;;;;;;;;;3.90;63.25;100152.72;1087578;54;19962;-82
2023/03/03 01:41:02;;;;;;;;;;;;;;;3.91;63.15;100154.41;1087686;54;20181;-82
2023/03/03 01:42:06;;;;;;;;;;;;;;;3.92;63.41;100155.25;1087683;54;20010;-82
2023/03/03 01:43:08;;;;;;;;;;;;;;;3.90;63.32;100153.56;1087901;54;19958;-80
2023/03/03 01:44:13;;;;;;;;;;;;;;;3.82;63.76;100152.38;1087560;54;19950;-81
2023/03/03 01:45:20;;;;;;;;;;;;;;;3.79;63.85;100156.03;1087666;46;19962;-82
2023/03/03 01:46:35;;;;;;;;;;;;;;;3.81;63.80;100154.16;1087561;54;20520;-82
2023/03/03 01:47:36;;;;;;;;;;;;;;;3.80;63.58;100154.25;1087769;54;19947;-82
2023/03/03 01:48:41;;;;;;;;;;;;;;;3.77;64.00;100155.31;1087845;54;20831;-82
2023/03/03 01:49:46;;;;;;;;;;;;;;;3.63;65.00;100153.53;1087778;54;19966;-84
2023/03/03 01:50:53;;;;;;;;;;;;;;;3.50;65.68;100152.59;1087649;54;19958;-80
2023/03/03 01:51:56;;;;;;;;;;;;;;;3.34;66.35;100156.22;1087862;54;19942;-81
2023/03/03 01:53:04;;;;;;;;;;;;;;;3.20;67.08;100162.38;1087830;54;19958;-80
2023/03/03 01:54:11;;;;;;;;;;;;;;;3.20;66.92;100157.09;1087853;54;20477;-81
2023/03/03 01:55:17;;;;;;;;;;;;;;;3.21;66.94;100158.75;1087691;54;19958;-81
2023/03/03 01:56:18;;;;;;;;;;;;;;;3.16;67.06;100158.19;1087555;54;19949;-81
2023/03/03 01:57:27;;;;;;;;;;;;;;;3.20;67.04;100157.09;1087456;54;19958;-81
2023/03/03 01:58:30;;;;;;;;;;;;;;;3.19;67.13;100155.38;1087882;39;20447;-81
2023/03/03 01:59:36;;;;;;;;;;;;;;;3.22;66.80;100155.16;1087497;54;19946;-82
2023/03/03 02:00:38;;;;;;;;;;;;;;;3.26;66.30;100156.69;1087842;54;19939;-82
2023/03/03 02:01:42;;;;;;;;;;;;;;;3.24;66.34;100163.84;1087939;54;19985;-80
2023/03/03 02:02:44;;;;;;;;;;;;;;;3.23;66.38;100159.50;1087970;54;19946;-80
2023/03/03 02:03:48;;;;;;;;;;;;;;;3.28;66.14;100160.09;1087977;46;19945;-80
2023/03/03 02:04:49;;;;;;;;;;;;;;;3.35;65.95;100160.56;1087351;54;19943;-81
2023/03/03 02:05:56;;;;;;;;;;;;;;;3.41;65.79;100154.03;1087002;54;19981;-81
2023/03/03 02:07:00;;;;;;;;;;;;;;;3.46;65.32;100159.88;1087296;54;19950;-81
2023/03/03 02:08:04;;;;;;;;;;;;;;;3.50;65.50;100161.38;1087264;54;20551;-80
2023/03/03 02:09:10;;;;;;;;;;;;;;;3.53;65.26;100158.56;1087101;54;20034;-81
2023/03/03 02:10:15;;;;;;;;;;;;;;;3.48;65.24;100159.78;1087013;54;19950;-81
2023/03/03 02:11:17;;;;;;;;;;;;;;;3.42;65.29;100166.28;1086768;54;19947;-81
2023/03/03 02:12:22;;;;;;;;;;;;;;;3.40;65.37;100161.13;1086701;54;19954;-79
2023/03/03 02:13:23;;;;;;;;;;;;;;;3.42;65.36;100158.38;1086721;54;19958;-80
2023/03/03 02:14:27;;;;;;;;;;;;;;;3.48;65.14;100160.66;1086630;54;19951;-82
2023/03/03 02:15:31;;;;;;;;;;;;;;;3.51;65.15;100157.78;1086742;47;19947;-81
2023/03/03 02:16:34;;;;;;;;;;;;;;;3.53;64.82;100155.06;1086619;54;19950;-80
2023/03/03 02:17:35;;;;;;;;;;;;;;;3.54;64.93;100162.06;1086930;54;19954;-80
2023/03/03 02:18:39;;;;;;;;;;;;;;;3.51;65.30;100160.44;1086960;54;20547;-80
2023/03/03 02:19:46;;;;;;;;;;;;;;;3.53;65.05;100163.84;1086938;54;19950;-82
2023/03/03 02:20:55;;;;;;;;;;;;;;;3.52;65.22;100161.31;1086883;54;19966;-81
2023/03/03 02:21:57;;;;;;;;;;;;;;;3.53;64.84;100155.91;1087124;54;19969;-81
2023/03/03 02:23:05;;;;;;;;;;;;;;;3.53;64.98;100161.19;1087143;54;19947;-81
2023/03/03 02:24:13;;;;;;;;;;;;;;;3.53;64.96;100153.25;1086994;54;19962;-81
2023/03/03 02:25:20;;;;;;;;;;;;;;;3.54;65.06;100154.13;1087157;54;19951;-81
2023/03/03 02:26:25;;;;;;;;;;;;;;;3.47;65.37;100147.50;1087165;54;20018;-81
2023/03/03 02:27:30;;;;;;;;;;;;;;;3.42;65.73;100150.44;1087418;39;20303;-80
2023/03/03 02:28:32;;;;;;;;;;;;;;;3.37;65.66;100153.38;1087044;54;19950;-80
2023/03/03 02:29:36;;;;;;;;;;;;;;;3.35;65.43;100159.72;1086826;54;19958;-80
2023/03/03 02:30:38;;;;;;;;;;;;;;;3.35;65.68;100162.34;1086825;54;19991;-81
2023/03/03 02:31:42;;;;;;;;;;;;;;;3.33;65.31;100151.00;1086832;54;19950;-81
2023/03/03 02:32:43;;;;;;;;;;;;;;;3.32;65.37;100158.09;1086920;54;19947;-80
2023/03/03 02:33:48;;;;;;;;;;;;;;;3.27;65.70;100152.25;1086811;54;20018;-80
2023/03/03 02:34:50;;;;;;;;;;;;;;;3.22;65.91;100160.47;1086997;54;19957;-80
2023/03/03 02:35:54;;;;;;;;;;;;;;;3.22;65.93;100155.16;1086821;54;19947;-80
2023/03/03 02:36:55;;;;;;;;;;;;;;;3.22;65.80;100157.81;1086887;54;19942;-80
2023/03/03 02:38:03;;;;;;;;;;;;;;;3.22;65.76;100156.97;1087101;54;19943;-79
2023/03/03 02:39:10;;;;;;;;;;;;;;;3.16;66.04;100155.56;1086910;54;19950;-80
2023/03/03 02:40:13;;;;;;;;;;;;;;;3.14;66.05;100151.31;1086605;54;19950;-80
2023/03/03 02:41:23;;;;;;;;;;;;;;;3.16;66.05;100157.38;1086761;54;19950;-79
2023/03/03 02:42:28;;;;;;;;;;;;;;;3.19;65.91;100158.03;1087521;54;19942;-81
2023/03/03 02:43:34;;;;;;;;;;;;;;;3.19;66.08;100173.00;1088094;54;19946;-80
2023/03/03 02:44:35;;;;;;;;;;;;;;;3.18;65.99;100158.97;1088387;54;19923;-80
2023/03/03 02:45:45;;;;;;;;;;;;;;;3.17;66.07;100169.59;1088200;54;20031;-80
2023/03/03 02:46:47;;;;;;;;;;;;;;;3.13;66.21;100163.66;1088133;54;19946;-80
2023/03/03 02:47:53;;;;;;;;;;;;;;;3.08;66.46;100165.75;1088110;54;19957;-80
2023/03/03 02:48:54;;;;;;;;;;;;;;;3.03;67.08;100163.41;1088024;54;19950;-80
2023/03/03 02:50:01;;;;;;;;;;;;;;;2.99;67.26;100161.03;1088281;54;20014;-80
2023/03/03 02:51:02;;;;;;;;;;;;;;;2.92;67.81;100165.81;1091935;46;19943;-80
2023/03/03 02:52:08;;;;;;;;;;;;;;;2.92;67.52;100164.06;1089044;46;19939;-80
2023/03/03 02:53:09;;;;;;;;;;;;;;;2.94;67.06;100163.94;1088120;54;19942;-80
2023/03/03 02:54:15;;;;;;;;;;;;;;;2.94;66.97;100159.50;1089618;39;20474;-80
2023/03/03 02:55:16;;;;;;;;;;;;;;;2.95;67.08;100166.50;1089143;46;19923;-79
2023/03/03 02:56:20;;;;;;;;;;;;;;;2.87;67.34;100163.47;1089816;46;19929;-81
2023/03/03 02:57:21;;;;;;;;;;;;;;;2.83;67.66;100164.63;1088333;54;19946;-80
2023/03/03 02:58:28;;;;;;;;;;;;;;;2.81;67.82;100164.69;1088240;54;19923;-80
2023/03/03 02:59:29;;;;;;;;;;;;;;;2.83;67.24;100164.63;1088308;54;19938;-80
2023/03/03 03:00:34;;;;;;;;;;;;;;;2.80;67.52;100170.06;1088408;47;19941;-81
2023/03/03 03:01:35;;;;;;;;;;;;;;;2.79;67.55;100168.34;1091030;46;19939;-81
2023/03/03 03:02:39;;;;;;;;;;;;;;;2.76;67.78;100173.81;1089820;46;19938;-80
2023/03/03 03:03:40;;;;;;;;;;;;;;;2.76;67.43;100169.41;1087501;54;19938;-80
2023/03/03 03:04:44;;;;;;;;;;;;;;;2.77;67.57;100164.97;1088310;39;20479;-80
2023/03/03 03:05:45;;;;;;;;;;;;;;;2.80;67.50;100170.06;1087350;54;19943;-80
2023/03/03 03:06:49;;;;;;;;;;;;;;;2.80;67.43;100164.78;1087749;39;20934;-81
2023/03/03 03:07:50;;;;;;;;;;;;;;;2.80;67.13;100170.06;1086899;54;19935;-81
2023/03/03 03:08:54;;;;;;;;;;;;;;;2.77;67.47;100160.53;1087008;54;19953;-81
2023/03/03 03:09:55;;;;;;;;;;;;;;;2.77;67.77;100167.59;1089204;39;20411;-81
2023/03/03 03:10:59;;;;;;;;;;;;;;;2.74;67.87;100163.34;1087717;39;20443;-81
2023/03/03 03:12:01;;;;;;;;;;;;;;;2.75;67.73;100170.34;1086922;54;19972;-80
2023/03/03 03:13:05;;;;;;;;;;;;;;;2.74;67.82;100167.81;1086564;54;19947;-80
2023/03/03 03:14:09;;;;;;;;;;;;;;;2.76;67.28;100164.13;1086730;54;19973;-81
2023/03/03 03:15:14;;;;;;;;;;;;;;;2.77;67.34;100172.88;1088759;31;20548;-80
2023/03/03 03:16:15;;;;;;;;;;;;;;;2.76;67.47;100164.13;1087083;39;20589;-81
2023/03/03 03:17:19;;;;;;;;;;;;;;;2.78;67.44;100169.31;1086250;54;19946;-80
2023/03/03 03:18:20;;;;;;;;;;;;;;;2.79;67.56;100173.63;1086935;54;19946;-81
2023/03/03 03:19:24;;;;;;;;;;;;;;;2.79;67.51;100173.63;1087774;39;20755;-81
2023/03/03 03:20:25;;;;;;;;;;;;;;;2.79;67.25;100168.34;1087058;54;19943;-81
2023/03/03 03:21:29;;;;;;;;;;;;;;;2.80;67.15;100164.78;1087159;54;19942;-81
2023/03/03 03:22:30;;;;;;;;;;;;;;;2.81;67.27;100166.50;1087378;39;20396;-81
2023/03/03 03:23:35;;;;;;;;;;;;;;;2.83;67.20;100169.91;1086079;54;19951;-80
2023/03/03 03:24:36;;;;;;;;;;;;;;;2.84;67.21;100171.56;1085704;54;19946;-80
2023/03/03 03:25:44;;;;;;;;;;;;;;;2.79;67.61;100166.56;1086650;54;19950;-81
2023/03/03 03:26:45;;;;;;;;;;;;;;;2.80;67.46;100175.34;1086867;39;20642;-80
2023/03/03 03:27:49;;;;;;;;;;;;;;;2.83;67.06;100179.59;1086133;54;19947;-80
2023/03/03 03:28:50;;;;;;;;;;;;;;;2.83;67.15;100177.81;1085579;54;19946;-80
2023/03/03 03:29:57;;;;;;;;;;;;;;;2.83;66.85;100175.19;1085378;54;19950;-80
2023/03/03 03:30:59;;;;;;;;;;;;;;;2.81;67.21;100177.06;1086122;54;20505;-79
2023/03/03 03:32:03;;;;;;;;;;;;;;;2.82;66.84;100176.09;1086898;54;19943;-80
2023/03/03 03:33:04;;;;;;;;;;;;;;;2.79;67.09;100178.91;1086851;39;20791;-79
2023/03/03 03:34:08;;;;;;;;;;;;;;;2.79;67.08;100173.63;1086391;39;20692;-80
2023/03/03 03:35:10;;;;;;;;;;;;;;;2.73;67.79;100168.75;1085558;54;19951;-80
2023/03/03 03:36:15;;;;;;;;;;;;;;;2.67;67.94;100174.38;1085311;54;20500;-80
2023/03/03 03:37:16;;;;;;;;;;;;;;;2.65;67.87;100172.66;1085698;54;19967;-80
2023/03/03 03:38:21;;;;;;;;;;;;;;;2.64;67.80;100175.41;1086811;54;20909;-81
2023/03/03 03:39:22;;;;;;;;;;;;;;;2.65;67.69;100175.31;1088812;39;20470;-80
2023/03/03 03:40:27;;;;;;;;;;;;;;;2.62;67.80;100167.59;1087320;54;19957;-81
2023/03/03 03:41:28;;;;;;;;;;;;;;;2.61;67.92;100172.94;1088361;39;20439;-81
2023/03/03 03:42:32;;;;;;;;;;;;;;;2.60;67.74;100176.50;1087419;54;19958;-81
2023/03/03 03:43:34;;;;;;;;;;;;;;;2.54;68.04;100177.75;1087488;54;19950;-80
2023/03/03 03:44:38;;;;;;;;;;;;;;;2.46;68.66;100182.59;1087496;54;19942;-80
2023/03/03 03:45:44;;;;;;;;;;;;;;;2.45;68.74;100179.13;1087483;54;19943;-80
2023/03/03 03:46:48;;;;;;;;;;;;;;;2.43;68.73;100181.00;1087138;54;19947;-80
2023/03/03 03:47:52;;;;;;;;;;;;;;;2.43;68.31;100182.78;1086922;54;20029;-80
2023/03/03 03:48:56;;;;;;;;;;;;;;;2.44;68.52;100184.50;1087080;54;20449;-80
2023/03/03 03:49:58;;;;;;;;;;;;;;;2.45;68.15;100187.03;1087996;54;19943;-82
2023/03/03 03:51:03;;;;;;;;;;;;;;;2.47;68.11;100179.03;1093829;46;19946;-84
2023/03/03 03:52:04;;;;;;;;;;;;;;;2.49;67.94;100182.44;1087898;54;19934;-82
2023/03/03 03:53:08;;;;;;;;;;;;;;;2.43;68.26;100183.63;1087435;54;19945;-81
2023/03/03 03:54:16;;;;;;;;;;;;;;;2.41;68.66;100184.66;1087547;54;19942;-80
2023/03/03 03:55:21;;;;;;;;;;;;;;;2.39;68.61;100189.19;1087790;54;19942;-81
2023/03/03 03:56:22;;;;;;;;;;;;;;;2.42;68.54;100187.22;1087704;54;19943;-80
2023/03/03 03:57:27;;;;;;;;;;;;;;;2.43;68.65;100198.63;1087508;54;19942;-80
2023/03/03 03:58:28;;;;;;;;;;;;;;;2.44;68.22;100189.78;1087502;47;19927;-80
2023/03/03 03:59:32;;;;;;;;;;;;;;;2.39;68.42;100187.41;1087216;47;19957;-81
2023/03/03 04:00:34;;;;;;;;;;;;;;;2.37;68.84;100193.69;1086667;54;19993;-80
2023/03/03 04:01:41;;;;;;;;;;;;;;;2.36;68.87;100197.28;1085839;54;19946;-80
2023/03/03 04:02:42;;;;;;;;;;;;;;;2.36;68.76;100197.28;1086072;54;19962;-81
2023/03/03 04:03:47;;;;;;;;;;;;;;;2.30;68.87;100193.22;1086178;54;20520;-80
2023/03/03 04:04:49;;;;;;;;;;;;;;;2.26;69.36;100191.69;1086434;54;19950;-80
2023/03/03 04:05:54;;;;;;;;;;;;;;;2.26;69.03;100194.31;1086917;54;19946;-80
2023/03/03 04:06:56;;;;;;;;;;;;;;;2.25;69.33;100188.19;1086524;54;19962;-82
2023/03/03 04:08:00;;;;;;;;;;;;;;;2.26;68.80;100196.94;1086479;54;20530;-81
2023/03/03 04:09:02;;;;;;;;;;;;;;;2.25;68.95;100188.19;1086583;54;19947;-81
2023/03/03 04:10:07;;;;;;;;;;;;;;;2.22;69.38;100191.00;1086404;54;19950;-80
2023/03/03 04:11:08;;;;;;;;;;;;;;;2.20;69.33;100195.50;1086618;54;19942;-82
2023/03/03 04:12:12;;;;;;;;;;;;;;;2.20;69.41;100198.16;1086757;54;19957;-80
2023/03/03 04:13:14;;;;;;;;;;;;;;;2.18;69.55;100195.59;1086840;54;19943;-81
2023/03/03 04:14:18;;;;;;;;;;;;;;;2.16;69.49;100200.13;1086585;54;19950;-80
2023/03/03 04:15:21;;;;;;;;;;;;;;;2.18;69.48;100200.88;1087041;54;19943;-81
2023/03/03 04:16:26;;;;;;;;;;;;;;;2.18;69.48;100200.88;1086688;54;19993;-81
2023/03/03 04:17:31;;;;;;;;;;;;;;;2.17;69.51;100191.28;1086413;54;19958;-81
2023/03/03 04:18:35;;;;;;;;;;;;;;;2.17;69.24;100203.63;1086297;54;19973;-81
2023/03/03 04:19:37;;;;;;;;;;;;;;;2.19;69.30;100191.16;1086153;54;20006;-80
2023/03/03 04:20:41;;;;;;;;;;;;;;;2.16;69.41;100197.47;1086325;54;19946;-80
2023/03/03 04:21:43;;;;;;;;;;;;;;;2.17;69.11;100193.06;1086253;54;20014;-79
2023/03/03 04:22:48;;;;;;;;;;;;;;;2.17;69.16;100198.34;1086601;54;19947;-80
2023/03/03 04:23:49;;;;;;;;;;;;;;;2.20;68.82;100198.16;1087140;39;20471;-80
2023/03/03 04:24:53;;;;;;;;;;;;;;;2.23;68.83;100197.13;1086514;54;19957;-80
2023/03/03 04:25:54;;;;;;;;;;;;;;;2.24;68.62;100194.41;1085949;54;20000;-80
2023/03/03 04:26:58;;;;;;;;;;;;;;;2.25;68.48;100198.75;1086148;54;20638;-81
2023/03/03 04:27:59;;;;;;;;;;;;;;;2.21;68.68;100210.41;1086252;54;19951;-80
2023/03/03 04:29:03;;;;;;;;;;;;;;;2.20;68.52;100206.06;1086062;54;19963;-80
2023/03/03 04:30:06;;;;;;;;;;;;;;;2.18;68.67;100207.94;1086403;54;19946;-81
2023/03/03 04:31:10;;;;;;;;;;;;;;;2.20;68.64;100206.06;1087537;39;20735;-80
2023/03/03 04:32:11;;;;;;;;;;;;;;;2.22;68.41;100204.19;1085826;54;19947;-80
2023/03/03 04:33:18;;;;;;;;;;;;;;;2.25;68.53;100205.81;1085885;54;19953;-80
2023/03/03 04:34:20;;;;;;;;;;;;;;;2.26;68.60;100205.72;1085439;54;19977;-80
2023/03/03 04:35:24;;;;;;;;;;;;;;;2.18;68.96;100203.53;1085168;54;19947;-79
2023/03/03 04:36:28;;;;;;;;;;;;;;;2.18;68.72;100208.78;1086210;54;19951;-80
2023/03/03 04:37:30;;;;;;;;;;;;;;;2.18;68.81;100202.66;1086420;54;19942;-80
2023/03/03 04:38:34;;;;;;;;;;;;;;;2.15;68.80;100200.22;1086570;54;19957;-79
2023/03/03 04:39:35;;;;;;;;;;;;;;;2.14;68.96;100203.78;1087127;54;19942;-80
2023/03/03 04:40:42;;;;;;;;;;;;;;;2.16;68.81;100202.75;1087008;54;19962;-79
2023/03/03 04:41:44;;;;;;;;;;;;;;;2.15;68.80;100200.22;1087232;54;19943;-81
2023/03/03 04:42:49;;;;;;;;;;;;;;;2.14;68.66;100196.72;1087303;54;20026;-80
2023/03/03 04:43:50;;;;;;;;;;;;;;;2.11;68.56;100190.75;1087492;54;19942;-81
2023/03/03 04:44:55;;;;;;;;;;;;;;;2.09;68.94;100190.00;1087702;54;19926;-81
2023/03/03 04:45:57;;;;;;;;;;;;;;;2.00;69.08;100200.13;1087533;54;19951;-81
2023/03/03 04:47:01;;;;;;;;;;;;;;;1.96;69.00;100201.25;1087217;54;19950;-80
2023/03/03 04:48:03;;;;;;;;;;;;;;;1.97;68.79;100197.69;1087584;54;20528;-82
2023/03/03 04:49:10;;;;;;;;;;;;;;;1.98;68.54;100199.38;1089239;39;20472;-80
2023/03/03 04:50:12;;;;;;;;;;;;;;;1.99;68.64;100195.78;1087331;54;19943;-80
2023/03/03 04:51:17;;;;;;;;;;;;;;;1.99;68.42;100195.78;1087419;54;19950;-83
2023/03/03 04:52:19;;;;;;;;;;;;;;;1.99;68.48;100197.59;1087618;54;20751;-80
2023/03/03 04:53:23;;;;;;;;;;;;;;;2.01;68.63;100196.56;1087299;54;19942;-80
2023/03/03 04:54:25;;;;;;;;;;;;;;;2.01;68.64;100193.91;1087663;54;19950;-81
2023/03/03 04:55:34;;;;;;;;;;;;;;;1.99;68.70;100198.41;1087659;54;19950;-80
2023/03/03 04:56:39;;;;;;;;;;;;;;;2.00;68.43;100204.56;1087542;54;20957;-80
2023/03/03 04:57:47;;;;;;;;;;;;;;;1.96;68.60;100209.16;1087677;54;20627;-82
2023/03/03 04:58:52;;;;;;;;;;;;;;;1.99;68.55;100202.84;1087479;54;20025;-81
2023/03/03 05:00:02;;;;;;;;;;;;;;;1.98;68.40;100204.66;1086932;54;19992;-80
2023/03/03 05:01:09;;;;;;;;;;;;;;;1.97;68.44;100207.34;1087140;54;19942;-81
2023/03/03 05:02:13;;;;;;;;;;;;;;;1.96;68.42;100208.28;1088885;31;20634;-80
2023/03/03 05:03:21;;;;;;;;;;;;;;;1.92;68.61;100210.25;1086971;54;19948;-81
2023/03/03 05:04:25;;;;;;;;;;;;;;;1.90;68.68;100217.38;1087102;54;19950;-80
2023/03/03 05:05:30;;;;;;;;;;;;;;;1.86;68.86;100213.25;1087089;54;19945;-78
2023/03/03 05:06:31;;;;;;;;;;;;;;;1.85;68.82;100219.44;1086911;54;19951;-81
2023/03/03 05:07:35;;;;;;;;;;;;;;;1.84;68.70;100212.47;1087593;54;19951;-80
2023/03/03 05:08:37;;;;;;;;;;;;;;;1.83;68.57;100222.19;1086832;54;19969;-80
2023/03/03 05:09:41;;;;;;;;;;;;;;;1.83;68.72;100226.59;1087155;54;19946;-81
2023/03/03 05:10:44;;;;;;;;;;;;;;;1.83;68.92;100222.19;1087760;39;20376;-81
2023/03/03 05:11:48;;;;;;;;;;;;;;;1.82;68.66;100222.25;1087471;54;19958;-79
2023/03/03 05:12:50;;;;;;;;;;;;;;;1.79;69.05;100222.44;1087253;54;19950;-80
2023/03/03 05:13:55;;;;;;;;;;;;;;;1.81;69.02;100224.03;1086979;54;19948;-79
2023/03/03 05:14:56;;;;;;;;;;;;;;;1.79;69.04;100225.06;1087812;39;20325;-81
2023/03/03 05:16:00;;;;;;;;;;;;;;;1.80;69.12;100221.47;1086184;54;20485;-80
2023/03/03 05:17:03;;;;;;;;;;;;;;;1.79;68.81;100225.91;1086814;54;19950;-80
2023/03/03 05:18:07;;;;;;;;;;;;;;;1.69;69.37;100230.84;1086649;54;19958;-79
2023/03/03 05:19:09;;;;;;;;;;;;;;;1.64;69.07;100232.84;1086805;54;19946;-80
2023/03/03 05:20:17;;;;;;;;;;;;;;;1.68;69.15;100236.19;1086732;54;19951;-80
2023/03/03 05:21:18;;;;;;;;;;;;;;;1.70;68.98;100235.16;1086344;54;19946;-79
2023/03/03 05:22:22;;;;;;;;;;;;;;;1.66;69.08;100228.38;1086786;54;19951;-79
2023/03/03 05:23:24;;;;;;;;;;;;;;;1.56;69.58;100233.25;1086272;54;20030;-80
2023/03/03 05:24:28;;;;;;;;;;;;;;;1.55;69.80;100234.22;1086023;54;19972;-79
2023/03/03 05:25:30;;;;;;;;;;;;;;;1.57;69.22;100231.50;1085785;54;19951;-80
2023/03/03 05:26:34;;;;;;;;;;;;;;;1.63;69.07;100235.59;1086412;54;19950;-80
2023/03/03 05:27:36;;;;;;;;;;;;;;;1.65;68.91;100239.84;1086890;54;19951;-81
2023/03/03 05:28:40;;;;;;;;;;;;;;;1.67;68.84;100232.69;1086970;54;20473;-79
2023/03/03 05:29:41;;;;;;;;;;;;;;;1.70;68.80;100229.88;1086549;54;19958;-80
2023/03/03 05:30:46;;;;;;;;;;;;;;;1.73;68.71;100231.53;1086083;54;20014;-79
2023/03/03 05:31:47;;;;;;;;;;;;;;;1.74;68.52;100237.63;1085885;54;19962;-80
2023/03/03 05:32:52;;;;;;;;;;;;;;;1.72;68.34;100229.81;1086156;54;19998;-79
2023/03/03 05:33:54;;;;;;;;;;;;;;;1.74;68.61;100227.09;1086082;54;19958;-79
2023/03/03 05:34:58;;;;;;;;;;;;;;;1.72;68.23;100232.44;1085893;54;19954;-78